Time;durP1;ratioP1;P1;durP2;ratioP2;P2;SDS_P1;SDS_P2;PMS_P1;PMS_P2;Temp;Humidity;BMP_temperature;BMP_pressure;BME280_temperature;BME280_humidity;BME280_pressure;Samples;Min_cycle;Max_cycle;Signal;HPM_P1;HPM_P2
2022/04/28 00:01:45;;;;;;;13.88;4.10;;;;;;;3.62;100.00;102684.00;5081816;28;20036;-76
2022/04/28 00:04:10;;;;;;;13.10;4.32;;;;;;;3.51;100.00;102671.41;5067175;28;20403;-77
2022/04/28 00:06:36;;;;;;;16.30;4.22;;;;;;;3.50;100.00;102667.97;5090515;28;20152;-77
2022/04/28 00:09:02;;;;;;;16.70;4.72;;;;;;;3.54;100.00;102676.47;5081162;28;20037;-77
2022/04/28 00:11:27;;;;;;;12.88;5.20;;;;;;;3.56;100.00;102681.59;5096934;28;20093;-77
2022/04/28 00:13:53;;;;;;;16.70;4.80;;;;;;;3.37;100.00;102656.31;5077794;28;20036;-78
2022/04/28 00:16:18;;;;;;;8.63;3.90;;;;;;;3.48;100.00;102680.16;5080768;28;20078;-77
2022/04/28 00:18:44;;;;;;;15.30;5.03;;;;;;;3.48;100.00;102676.69;5067415;28;20047;-77
2022/04/28 00:21:09;;;;;;;15.00;4.53;;;;;;;3.47;100.00;102685.38;5081549;28;20054;-77
2022/04/28 00:23:35;;;;;;;15.45;4.57;;;;;;;3.45;100.00;102685.44;5056875;28;20029;-77
2022/04/28 00:26:00;;;;;;;14.80;4.72;;;;;;;3.46;100.00;102686.25;5092423;28;20396;-77
2022/04/28 00:28:26;;;;;;;15.10;4.35;;;;;;;3.46;100.00;102686.25;5061613;28;20036;-77
2022/04/28 00:30:51;;;;;;;17.83;4.50;;;;;;;3.38;100.00;102681.34;5052166;28;20040;-77
2022/04/28 00:33:17;;;;;;;14.82;4.50;;;;;;;3.39;100.00;102672.69;5085154;28;20043;-76
2022/04/28 00:35:43;;;;;;;10.98;4.50;;;;;;;3.48;100.00;102680.16;5056809;28;20032;-76
2022/04/28 00:38:11;;;;;;;9.93;4.38;;;;;;;3.45;100.00;102684.59;5086771;28;20047;-78
2022/04/28 00:40:37;;;;;;;12.50;4.63;;;;;;;3.46;100.00;102686.25;5090454;28;20040;-77
2022/04/28 00:43:20;;;;;;;19.25;5.07;;;;;;;3.46;100.00;102686.25;5086176;28;20044;-76
2022/04/28 00:45:50;;;;;;;13.20;4.32;;;;;;;3.40;100.00;102694.28;5099385;28;20028;-77
2022/04/28 00:51:04;;;;;;;13.35;4.95;;;;;;;3.40;100.00;102691.66;5084747;28;20036;-76
2022/04/28 00:53:32;;;;;;;12.63;4.50;;;;;;;3.43;100.00;102679.44;5087072;28;20192;-77
2022/04/28 00:55:58;;;;;;;11.77;4.82;;;;;;;3.39;100.00;102690.84;5072946;28;20035;-76
2022/04/28 00:58:25;;;;;;;12.13;4.90;;;;;;;3.41;100.00;102680.38;5085843;28;20071;-77
2022/04/28 01:00:53;;;;;;;14.20;5.07;;;;;;;3.51;100.00;102686.97;5064512;28;20024;-77
2022/04/28 01:03:21;;;;;;;12.90;4.95;;;;;;;3.49;100.00;102697.38;5056674;28;20036;-77
2022/04/28 01:05:47;;;;;;;11.55;5.22;;;;;;;3.48;100.00;102689.66;5072575;28;20024;-77
2022/04/28 01:08:13;;;;;;;14.98;5.50;;;;;;;3.43;100.00;102687.22;5076966;28;20032;-76
2022/04/28 01:10:39;;;;;;;11.10;4.43;;;;;;;3.48;100.00;102705.22;5075320;28;20071;-75
2022/04/28 01:13:05;;;;;;;14.38;5.13;;;;;;;3.48;100.00;102702.63;5066262;28;20048;-77
2022/04/28 01:15:43;;;;;;;10.10;5.10;;;;;;;3.41;100.00;102701.13;5073402;28;20043;-76
2022/04/28 01:18:08;;;;;;;15.63;5.40;;;;;;;3.39;100.00;102698.63;5089406;28;20028;-76
2022/04/28 01:20:35;;;;;;;16.83;5.45;;;;;;;3.34;100.00;102700.50;5082612;28;20032;-76
2022/04/28 01:23:00;;;;;;;11.05;5.28;;;;;;;3.23;100.00;102698.25;5090991;28;20131;-76
2022/04/28 01:25:25;;;;;;;16.20;5.85;;;;;;;3.17;100.00;102689.84;5087386;28;20039;-76
2022/04/28 01:27:51;;;;;;;16.15;5.60;;;;;;;3.16;100.00;102694.19;5081495;28;20048;-78
2022/04/28 01:30:17;;;;;;;19.63;6.30;;;;;;;3.12;100.00;102687.41;5088282;28;20051;-78
2022/04/28 01:32:56;;;;;;;15.68;6.30;;;;;;;3.15;100.00;102695.09;5110216;28;20136;-76
2022/04/28 01:35:22;;;;;;;12.68;6.22;;;;;;;3.12;100.00;102695.19;5104715;28;20016;-77
2022/04/28 01:37:48;;;;;;;15.10;6.75;;;;;;;3.06;100.00;102698.81;5110579;28;20055;-78
2022/04/28 01:40:16;;;;;;;22.63;6.82;;;;;;;3.03;100.00;102692.88;5111005;28;20048;-77
2022/04/28 01:42:43;;;;;;;17.08;7.05;;;;;;;3.03;100.00;102700.66;5083691;28;20032;-76
2022/04/28 01:45:10;;;;;;;16.75;7.15;;;;;;;2.95;100.00;102700.91;5090385;28;20038;-76
2022/04/28 01:47:48;;;;;;;15.93;7.70;;;;;;;2.87;100.00;102701.16;5084377;28;20032;-78
2022/04/28 01:50:28;;;;;;;16.92;7.32;;;;;;;2.92;100.00;102714.84;5078640;28;20255;-77
2022/04/28 01:56:00;;;;;;;13.18;7.35;;;;;;;2.84;100.00;102708.19;5082758;28;20053;-78
2022/04/28 01:58:41;;;;;;;18.00;8.00;;;;;;;2.80;100.00;102696.22;5082759;28;20498;-80
2022/04/28 02:01:27;;;;;;;16.25;7.97;;;;;;;2.77;100.00;102704.06;5068507;28;20048;-77
2022/04/28 02:03:53;;;;;;;19.67;8.52;;;;;;;2.83;100.00;102699.56;5068489;28;20078;-77
2022/04/28 02:06:20;;;;;;;16.08;7.32;;;;;;;2.80;100.00;102694.47;5071419;28;20052;-78
2022/04/28 02:08:46;;;;;;;14.60;7.72;;;;;;;2.73;100.00;102686.06;5072617;28;20120;-76
2022/04/28 02:11:14;;;;;;;13.70;8.13;;;;;;;2.76;100.00;102692.03;5070952;28;20671;-76
2022/04/28 02:14:12;;;;;;;16.13;8.02;;;;;;;2.79;100.00;102697.97;5081143;28;20486;-78
2022/04/28 02:17:11;;;;;;;14.88;8.45;;;;;;;2.75;100.00;102691.19;5081815;28;20402;-77
2022/04/28 02:19:37;;;;;;;21.63;9.00;;;;;;;2.75;100.00;102696.38;5079217;28;20051;-78
2022/04/28 02:22:03;;;;;;;19.45;8.50;;;;;;;2.67;100.00;102687.97;5082773;28;20669;-77
2022/04/28 02:24:32;;;;;;;21.70;9.93;;;;;;;2.59;100.00;102685.63;5069046;28;20071;-78
2022/04/28 02:26:58;;;;;;;27.50;12.10;;;;;;;2.56;100.00;102692.63;5087251;28;20067;-79
2022/04/28 02:29:23;;;;;;;23.38;10.65;;;;;;;2.50;100.00;102689.31;5049653;28;20044;-78
2022/04/28 02:31:50;;;;;;;19.17;10.73;;;;;;;2.47;100.00;102692.03;5084438;28;20086;-78
2022/04/28 02:34:16;;;;;;;23.38;11.65;;;;;;;2.34;100.00;102683.78;5085840;28;20040;-78
2022/04/28 02:36:47;;;;;;;23.13;10.82;;;;;;;2.29;100.00;102675.28;5071047;28;20038;-78
2022/04/28 02:39:14;;;;;;;19.45;11.63;;;;;;;2.27;100.00;102684.00;5084430;28;20043;-77
2022/04/28 02:41:43;;;;;;;19.92;11.25;;;;;;;2.23;100.00;102685.84;5059596;28;20036;-78
2022/04/28 02:44:09;;;;;;;20.95;11.55;;;;;;;2.22;100.00;102685.88;5055358;28;20058;-77
2022/04/28 02:46:35;;;;;;;21.88;11.05;;;;;;;2.22;100.00;102688.47;5070285;28;20135;-78
2022/04/28 02:49:04;;;;;;;21.73;10.90;;;;;;;2.14;100.00;102680.91;5077031;28;20075;-77
2022/04/28 02:51:34;;;;;;;28.85;12.52;;;;;;;2.05;100.00;102673.41;5086530;28;20064;-78
2022/04/28 02:53:59;;;;;;;23.42;11.80;;;;;;;2.07;100.00;102675.09;5047581;28;20557;-78
2022/04/28 02:56:25;;;;;;;22.13;11.82;;;;;;;2.18;100.00;102681.69;5083178;28;20032;-78
2022/04/28 02:58:53;;;;;;;25.10;11.50;;;;;;;2.12;100.00;102680.94;5070817;28;20118;-78
2022/04/28 03:01:22;;;;;;;19.33;11.20;;;;;;;2.09;100.00;102685.38;5067207;28;20040;-77
2022/04/28 03:03:48;;;;;;;27.30;13.50;;;;;;;2.09;100.00;102695.72;5054756;28;20039;-78
2022/04/28 03:11:44;;;;;;;25.48;12.93;;;;;;;2.17;100.00;102690.31;5077839;28;20035;-77
2022/04/28 03:14:12;;;;;;;23.73;12.82;;;;;;;2.12;100.00;102685.28;5083619;28;20038;-77
2022/04/28 03:16:40;;;;;;;25.05;12.60;;;;;;;2.02;100.00;102679.53;5077120;28;20397;-77
2022/04/28 03:19:07;;;;;;;26.02;12.07;;;;;;;2.04;100.00;102692.44;5084928;28;20047;-77
2022/04/28 03:21:34;;;;;;;22.48;12.60;;;;;;;2.00;100.00;102693.38;5080097;28;20064;-78
2022/04/28 03:24:02;;;;;;;31.58;14.07;;;;;;;1.88;100.00;102677.31;5083402;28;20047;-77
2022/04/28 03:26:29;;;;;;;26.90;14.52;;;;;;;1.87;100.00;102690.31;5084120;28;20057;-78
2022/04/28 03:28:56;;;;;;;31.08;15.15;;;;;;;1.78;100.00;102682.81;5080328;28;20409;-77
2022/04/28 03:31:22;;;;;;;27.33;13.80;;;;;;;1.81;100.00;102682.72;5075350;28;20058;-77
2022/04/28 03:34:09;;;;;;;25.65;14.20;;;;;;;1.78;100.00;102682.81;5067379;28;20032;-78
2022/04/28 03:36:50;;;;;;;29.17;16.08;;;;;;;1.75;100.00;102688.91;5086117;28;20111;-78
2022/04/28 03:39:17;;;;;;;26.17;14.18;;;;;;;1.70;100.00;102681.28;5072904;28;20545;-78
2022/04/28 03:41:43;;;;;;;29.88;13.65;;;;;;;1.74;100.00;102687.22;5076395;28;20079;-77
2022/04/28 03:44:09;;;;;;;32.35;15.57;;;;;;;1.74;100.00;102687.22;5080565;28;20043;-78
2022/04/28 03:46:36;;;;;;;29.40;14.18;;;;;;;1.67;100.00;102689.09;5067087;28;20028;-78
2022/04/28 03:49:03;;;;;;;30.45;14.80;;;;;;;1.68;100.00;102692.56;5048528;28;20063;-78
2022/04/28 03:51:29;;;;;;;34.28;15.93;;;;;;;1.59;100.00;102678.13;5085497;28;20068;-79
2022/04/28 03:54:00;;;;;;;29.05;14.60;;;;;;;1.58;100.00;102684.19;5057180;28;20063;-78
2022/04/28 03:56:30;;;;;;;26.95;14.68;;;;;;;1.62;100.00;102692.72;5080714;28;20032;-77
2022/04/28 03:58:59;;;;;;;22.23;14.45;;;;;;;1.58;100.00;102688.50;5061596;28;20041;-77
2022/04/28 04:01:25;;;;;;;27.05;13.75;;;;;;;1.53;100.00;102686.06;5082536;28;20352;-78
2022/04/28 04:04:06;;;;;;;25.83;13.73;;;;;;;1.58;100.00;102691.94;5080568;28;20039;-79
2022/04/28 04:06:34;;;;;;;27.05;14.27;;;;;;;1.59;100.00;102696.22;5059159;28;20550;-77
2022/04/28 04:09:24;;;;;;;27.00;14.68;;;;;;;1.56;100.00;102706.66;5071864;28;20125;-77
2022/04/28 04:11:51;;;;;;;28.85;14.55;;;;;;;1.65;100.00;102705.56;5061385;28;20020;-78
2022/04/28 04:14:17;;;;;;;27.60;14.48;;;;;;;1.62;100.00;102705.63;5085259;28;20410;-78
2022/04/28 04:16:43;;;;;;;19.67;13.80;;;;;;;1.68;100.00;102696.00;5054517;28;20035;-77
2022/04/28 04:19:12;;;;;;;24.92;13.50;;;;;;;1.75;100.00;102712.19;5097938;28;20031;-79
2022/04/28 04:21:44;;;;;;;26.58;14.00;;;;;;;1.70;100.00;102711.47;5075124;28;20034;-79
2022/04/28 04:24:09;;;;;;;31.27;14.40;;;;;;;1.67;100.00;102711.53;5087051;28;20032;-78
2022/04/28 04:26:37;;;;;;;30.83;14.55;;;;;;;1.66;100.00;102707.28;5070793;28;20043;-78
2022/04/28 04:29:05;;;;;;;31.55;14.93;;;;;;;1.69;100.00;102722.69;5070876;28;20402;-77
2022/04/28 04:34:52;;;;;;;;;;;;;;;1.74;100.00;102723.44;5083252;28;20039;-77
2022/04/28 04:37:21;;;;;;;33.65;13.90;;;;;;;1.77;100.00;102722.50;5086550;28;19923;-76
2022/04/28 04:39:48;;;;;;;25.23;12.63;;;;;;;1.83;100.00;102724.91;5055129;28;20040;-77
2022/04/28 04:42:15;;;;;;;28.20;13.18;;;;;;;1.90;100.00;102727.31;5068837;28;20032;-77
2022/04/28 04:44:40;;;;;;;25.25;12.63;;;;;;;1.97;100.00;102732.31;5070984;28;20660;-77
2022/04/28 04:47:08;;;;;;;29.10;12.80;;;;;;;2.00;100.00;102732.22;5052058;28;20029;-79
2022/04/28 04:49:53;;;;;;;25.98;12.75;;;;;;;2.06;100.00;102730.31;5090311;28;20036;-76
2022/04/28 04:52:29;;;;;;;32.97;12.95;;;;;;;2.20;100.00;102729.09;5061904;28;20054;-76
2022/04/28 04:54:58;;;;;;;29.17;12.35;;;;;;;2.32;100.00;102745.13;5082765;28;20810;-76
2022/04/28 04:57:24;;;;;;;30.85;13.07;;;;;;;2.37;100.00;102739.81;5084156;28;20040;-78
2022/04/28 04:59:50;;;;;;;25.40;12.43;;;;;;;2.49;100.00;102743.81;5071830;28;20031;-78
2022/04/28 05:02:16;;;;;;;22.23;12.43;;;;;;;2.59;100.00;102744.38;5089164;28;20035;-77
2022/04/28 05:05:05;;;;;;;25.08;12.48;;;;;;;2.70;100.00;102740.56;5073213;28;20040;-77
2022/04/28 05:07:34;;;;;;;37.22;13.18;;;;;;;2.79;100.00;102749.81;5079379;28;20507;-77
2022/04/28 05:09:59;;;;;;;30.73;12.88;;;;;;;2.95;100.00;102746.72;5053261;28;20040;-77
2022/04/28 05:12:25;;;;;;;31.20;13.30;;;;;;;3.09;100.00;102752.34;5086461;28;20463;-79
2022/04/28 05:14:53;;;;;;;40.67;14.52;;;;;;;3.16;100.00;102750.38;5057278;28;20028;-76
2022/04/28 05:17:22;;;;;;;27.70;12.77;;;;;;;3.33;100.00;102755.03;5073473;28;20071;-79
2022/04/28 05:20:08;;;;;;;28.40;13.73;;;;;;;3.46;100.00;102764.09;5065126;28;20109;-77
2022/04/28 05:22:53;;;;;;;29.85;14.30;;;;;;;3.60;100.00;102766.22;5070854;28;20398;-77
2022/04/28 05:25:37;;;;;;;34.47;14.00;;;;;;;3.66;100.00;102760.84;5082616;28;20711;-76
2022/04/28 05:28:21;;;;;;;27.65;13.50;;;;;;;3.84;100.00;102765.41;5074489;28;20028;-77
2022/04/28 05:31:26;;;;;;;28.42;12.70;;;;;;;4.07;100.00;102762.00;5042009;28;20039;-77
2022/04/28 05:34:21;;;;;;;28.60;14.30;;;;;;;4.47;100.00;102767.50;4972912;28;20053;-77
2022/04/28 05:36:58;;;;;;;33.45;13.32;;;;;;;4.60;100.00;102775.69;5049719;28;20044;-78
2022/04/28 05:39:24;;;;;;;32.90;13.90;;;;;;;4.89;100.00;102779.75;5068506;28;20136;-77
2022/04/28 05:41:50;;;;;;;30.17;12.40;;;;;;;5.09;100.00;102772.94;5086424;28;20051;-77
2022/04/28 05:47:00;;;;;;;28.15;12.90;;;;;;;5.58;100.00;102773.53;5099187;28;20255;-78
2022/04/28 05:49:27;;;;;;;26.67;12.80;;;;;;;5.57;100.00;102772.66;5068400;28;20040;-78
2022/04/28 05:51:53;;;;;;;31.45;13.07;;;;;;;5.63;100.00;102771.56;5072763;28;20029;-76
2022/04/28 05:54:22;;;;;;;26.17;11.93;;;;;;;5.92;100.00;102772.09;5057075;28;20055;-78
2022/04/28 05:56:48;;;;;;;27.45;12.93;;;;;;;5.96;100.00;102779.75;5092325;28;20496;-77
2022/04/28 05:59:16;;;;;;;29.13;11.68;;;;;;;5.95;100.00;102772.84;5088962;28;20057;-77
2022/04/28 06:01:42;;;;;;;32.63;12.52;;;;;;;6.16;100.00;102778.00;5064177;28;20036;-77
2022/04/28 06:04:10;;;;;;;28.25;12.10;;;;;;;6.35;100.00;102780.66;5077692;28;20503;-77
2022/04/28 06:06:37;;;;;;;24.27;12.32;;;;;;;6.50;100.00;102779.97;5087151;28;20032;-77
2022/04/28 06:09:09;;;;;;;27.20;11.90;;;;;;;6.67;100.00;102789.63;5086100;28;20039;-78
2022/04/28 06:11:36;;;;;;;26.35;11.90;;;;;;;6.77;100.00;102783.03;5087182;28;20040;-78
2022/04/28 06:14:01;;;;;;;27.55;11.20;;;;;;;6.95;100.00;102786.56;5063071;28;20082;-78
2022/04/28 06:16:45;;;;;;;27.23;11.43;;;;;;;7.13;99.89;102791.81;5070196;28;20082;-78
2022/04/28 06:19:25;;;;;;;26.00;10.18;;;;;;;7.30;97.14;102793.63;5076100;28;20123;-79
2022/04/28 06:22:03;;;;;;;24.08;9.98;;;;;;;7.40;97.80;102789.63;5084922;28;20040;-79
2022/04/28 06:24:33;;;;;;;22.50;9.30;;;;;;;7.59;95.19;102789.53;5085970;28;20032;-79
2022/04/28 06:26:59;;;;;;;22.23;9.73;;;;;;;7.60;94.85;102793.84;5082261;28;20404;-79
2022/04/28 06:29:26;;;;;;;29.52;9.43;;;;;;;7.78;94.10;102800.78;5088237;28;20039;-79
2022/04/28 06:31:55;;;;;;;23.00;8.48;;;;;;;7.91;90.53;102797.53;5063651;28;20717;-77
2022/04/28 06:34:39;;;;;;;20.98;7.95;;;;;;;7.97;90.69;102812.91;5089138;28;20557;-79
2022/04/28 06:37:06;;;;;;;19.25;8.40;;;;;;;7.98;90.48;102799.72;5085304;28;20025;-78
2022/04/28 06:39:34;;;;;;;25.95;8.80;;;;;;;8.03;89.28;102806.53;5082869;28;20107;-78
2022/04/28 06:42:00;;;;;;;20.63;7.80;;;;;;;8.18;89.45;102811.78;5047768;28;20115;-79
2022/04/28 06:44:46;;;;;;;25.58;8.57;;;;;;;8.41;88.04;102806.28;5069071;28;20760;-78
2022/04/28 06:47:38;;;;;;;21.17;7.93;;;;;;;8.77;88.34;102804.28;5084454;28;20037;-80
2022/04/28 06:50:23;;;;;;;15.68;6.43;;;;;;;9.10;84.84;102805.97;5070757;28;20064;-78
2022/04/28 06:53:24;;;;;;;22.35;6.47;;;;;;;9.10;85.78;102816.47;5084427;28;20562;-78
2022/04/28 06:56:05;;;;;;;14.77;4.65;;;;;;;9.18;84.25;102807.31;5064481;28;20027;-79
2022/04/28 06:58:39;;;;;;;21.98;5.65;;;;;;;9.23;83.94;102802.66;5081767;28;20045;-79
2022/04/28 07:01:08;;;;;;;21.13;6.25;;;;;;;9.33;84.61;102798.59;5049687;28;20039;-79
2022/04/28 07:03:35;;;;;;;20.83;5.35;;;;;;;9.06;83.20;102798.38;5066398;28;20044;-78
2022/04/28 07:06:01;;;;;;;19.58;5.55;;;;;;;8.72;84.61;102810.72;5064636;28;20036;-77
2022/04/28 07:08:27;;;;;;;20.30;5.32;;;;;;;8.70;85.20;102809.94;5057600;28;20486;-78
2022/04/28 07:10:53;;;;;;;16.25;6.13;;;;;;;8.57;85.87;102807.19;5072779;28;20402;-78
2022/04/28 07:13:19;;;;;;;20.98;5.18;;;;;;;8.39;86.48;102811.56;5068581;28;20066;-78
2022/04/28 07:16:06;;;;;;;22.52;5.90;;;;;;;8.14;87.92;102817.25;5074932;28;20069;-78
2022/04/28 07:18:50;;;;;;;21.00;5.95;;;;;;;8.24;88.10;102828.06;5079426;28;20502;-78
2022/04/28 07:21:16;;;;;;;22.67;6.32;;;;;;;8.77;86.25;102824.38;5068960;28;20067;-79
2022/04/28 07:23:42;;;;;;;18.17;5.95;;;;;;;9.06;83.26;102820.19;5085452;28;20062;-80
2022/04/28 07:26:09;;;;;;;16.05;4.75;;;;;;;9.31;81.09;102829.25;5070920;28;20067;-80
2022/04/28 07:28:35;;;;;;;16.30;5.45;;;;;;;9.58;82.40;102833.84;5087510;28;20446;-80
2022/04/28 07:31:02;;;;;;;15.02;3.90;;;;;;;9.76;78.72;102832.78;5085386;28;20035;-79
2022/04/28 07:33:46;;;;;;;20.65;4.55;;;;;;;9.95;76.74;102829.91;5077872;28;20406;-79
2022/04/28 07:36:31;;;;;;;13.23;4.95;;;;;;;10.04;77.26;102845.09;5091804;28;20056;-79
2022/04/28 07:39:15;;;;;;;24.98;5.40;;;;;;;9.79;75.62;102842.22;5062413;28;20036;-79
2022/04/28 07:42:09;;;;;;;15.50;5.10;;;;;;;9.87;73.88;102843.47;5056772;28;20032;-78
2022/04/28 07:44:39;;;;;;;17.08;5.03;;;;;;;9.84;75.05;102838.41;5061343;28;20387;-79
2022/04/28 07:47:06;;;;;;;16.52;4.88;;;;;;;10.00;74.21;102840.13;5054058;28;20077;-78
2022/04/28 07:49:36;;;;;;;12.02;4.80;;;;;;;10.16;74.58;102840.06;5086091;28;20028;-79
2022/04/28 07:52:03;;;;;;;18.00;5.22;;;;;;;9.99;74.59;102849.75;5051920;28;21015;-78
2022/04/28 07:54:29;;;;;;;21.35;5.95;;;;;;;9.99;73.29;102849.75;5069293;28;20033;-80
2022/04/28 07:56:55;;;;;;;13.55;5.15;;;;;;;10.03;73.88;102850.44;5087480;28;20051;-78
2022/04/28 07:59:23;;;;;;;14.80;5.82;;;;;;;10.04;72.58;102839.00;5063124;28;20032;-79
2022/04/28 08:01:55;;;;;;;18.80;6.30;;;;;;;10.21;73.10;102845.84;5082317;28;20433;-78
2022/04/28 08:04:20;;;;;;;16.08;5.68;;;;;;;10.25;72.46;102852.63;5053097;28;20093;-78
2022/04/28 08:06:55;;;;;;;13.70;5.47;;;;;;;10.36;75.14;102849.34;5083706;28;20045;-79
2022/04/28 08:09:21;;;;;;;17.25;5.25;;;;;;;10.45;72.50;102848.78;5048227;28;20036;-80
2022/04/28 08:11:47;;;;;;;21.52;5.47;;;;;;;10.63;73.43;102847.66;5071422;28;20052;-80
2022/04/28 08:14:13;;;;;;;17.17;5.20;;;;;;;10.82;71.50;102859.66;5053197;28;20036;-79
2022/04/28 08:16:39;;;;;;;15.70;5.25;;;;;;;10.90;70.39;102860.00;5065224;28;20035;-77
2022/04/28 08:19:05;;;;;;;16.23;4.75;;;;;;;11.10;70.48;102851.69;5083100;28;20032;-78
2022/04/28 08:21:42;;;;;;;10.88;4.65;;;;;;;11.19;69.13;102862.53;5066327;28;20458;-77
2022/04/28 08:24:08;;;;;;;16.13;6.15;;;;;;;11.02;68.72;102853.97;5070864;28;20040;-79
2022/04/28 08:26:34;;;;;;;16.52;5.10;;;;;;;10.94;70.07;102864.09;5085380;28;20044;-78
2022/04/28 08:29:01;;;;;;;18.17;5.72;;;;;;;11.06;69.87;102859.88;5084206;28;20043;-77
2022/04/28 08:31:29;;;;;;;13.77;6.35;;;;;;;11.22;69.05;102862.34;5071708;28;20028;-78
2022/04/28 08:33:56;;;;;;;21.92;6.60;;;;;;;11.35;69.01;102858.00;5062506;28;20081;-78
2022/04/28 08:36:27;;;;;;;17.23;5.78;;;;;;;11.45;69.89;102866.97;5071027;28;20114;-80
2022/04/28 08:38:56;;;;;;;22.05;5.53;;;;;;;11.84;69.51;102864.41;5078703;28;20161;-78
2022/04/28 08:41:33;;;;;;;15.65;5.18;;;;;;;11.79;67.19;102874.41;5068647;28;20115;-78
2022/04/28 08:44:22;;;;;;;15.93;5.78;;;;;;;11.67;68.06;102869.00;5082623;28;20081;-80
2022/04/28 08:46:56;;;;;;;14.75;6.00;;;;;;;11.68;66.20;102869.88;5066960;28;20032;-80
2022/04/28 08:49:28;;;;;;;16.58;6.07;;;;;;;11.72;67.86;102871.34;5085076;28;20143;-80
2022/04/28 08:52:16;;;;;;;19.77;5.78;;;;;;;11.84;66.55;102864.41;5096249;28;20482;-78
2022/04/28 08:54:44;;;;;;;24.20;6.55;;;;;;;11.81;66.96;102873.38;5076507;28;20649;-80
2022/04/28 08:57:12;;;;;;;17.30;5.78;;;;;;;11.81;66.86;102869.88;5083129;28;20036;-80
2022/04/28 08:59:39;;;;;;;14.45;5.85;;;;;;;12.18;68.58;102873.53;5087340;28;20491;-80
2022/04/28 09:02:05;;;;;;;15.52;5.38;;;;;;;12.39;67.86;102859.84;5058067;28;20096;-78
2022/04/28 09:05:00;;;;;;;12.15;5.30;;;;;;;12.24;66.83;102873.13;5076687;28;20039;-79
2022/04/28 09:07:37;;;;;;;18.45;5.32;;;;;;;12.43;65.57;102874.47;5086800;28;20028;-79
2022/04/28 09:10:32;;;;;;;18.95;5.75;;;;;;;12.65;68.97;102876.44;5085710;28;20050;-79
2022/04/28 09:16:18;;;;;;;14.40;4.78;;;;;;;12.59;66.38;102858.47;5087505;28;20036;-79
2022/04/28 09:18:46;;;;;;;14.52;5.32;;;;;;;12.70;66.05;102870.88;5069387;28;20089;-80
2022/04/28 09:21:11;;;;;;;17.52;4.90;;;;;;;12.78;65.18;102858.81;5085055;28;20107;-79
2022/04/28 09:23:38;;;;;;;10.10;4.70;;;;;;;12.82;65.61;102868.19;5054538;28;20048;-80
2022/04/28 09:26:05;;;;;;;12.85;5.35;;;;;;;12.73;64.08;102875.91;5053391;28;20048;-79
2022/04/28 09:28:31;;;;;;;14.60;5.55;;;;;;;12.83;64.79;102861.16;5069710;28;20533;-80
2022/04/28 09:30:57;;;;;;;16.77;5.60;;;;;;;12.90;65.95;102869.44;5068193;28;20119;-79
2022/04/28 09:33:38;;;;;;;17.98;4.82;;;;;;;13.09;64.59;102866.31;5083511;28;20523;-81
2022/04/28 09:36:23;;;;;;;14.27;4.82;;;;;;;13.44;64.64;102869.88;5085370;28;20036;-80
2022/04/28 09:38:57;;;;;;;16.13;4.68;;;;;;;13.54;66.36;102869.19;5084285;28;20133;-80
2022/04/28 09:44:24;;;;;;;14.80;5.28;;;;;;;13.77;65.53;102872.78;5086721;28;20040;-80
2022/04/28 09:46:56;;;;;;;17.42;5.57;;;;;;;13.66;63.89;102867.47;5089578;28;20028;-80
2022/04/28 09:49:23;;;;;;;11.40;4.60;;;;;;;13.83;62.94;102859.13;5054134;28;20131;-80
2022/04/28 09:52:09;;;;;;;12.32;4.70;;;;;;;13.89;64.42;102866.56;5088397;28;20512;-79
2022/04/28 09:54:52;;;;;;;9.18;5.20;;;;;;;13.77;62.78;102859.59;5078122;28;20120;-79
2022/04/28 09:57:20;;;;;;;16.95;6.40;;;;;;;14.00;66.11;102861.28;5067330;28;20109;-80
2022/04/28 09:59:54;;;;;;;11.55;5.60;;;;;;;14.10;62.08;102864.06;5081842;28;20046;-80
2022/04/28 10:02:25;;;;;;;11.18;5.70;;;;;;;13.98;62.11;102857.94;5071112;28;20486;-80
2022/04/28 10:04:52;;;;;;;14.43;6.25;;;;;;;14.19;62.55;102851.97;5066016;28;20040;-80
2022/04/28 10:07:34;;;;;;;20.75;6.70;;;;;;;13.93;61.66;102870.63;5075283;28;20035;-80
2022/04/28 10:10:00;;;;;;;14.73;6.07;;;;;;;13.93;62.41;102856.59;5068374;28;20040;-79
2022/04/28 10:12:27;;;;;;;17.52;5.53;;;;;;;14.21;62.15;102861.44;5056065;28;20394;-79
2022/04/28 10:15:14;;;;;;;14.88;5.47;;;;;;;14.35;60.97;102864.81;5103583;28;20040;-79
2022/04/28 10:17:54;;;;;;;15.95;6.22;;;;;;;14.27;62.10;102862.75;5055887;28;20055;-79
2022/04/28 10:20:31;;;;;;;15.13;6.10;;;;;;;14.39;62.38;102867.09;5049701;28;20103;-79
2022/04/28 10:23:01;;;;;;;10.90;5.32;;;;;;;14.69;59.60;102862.19;5086340;28;20036;-79
2022/04/28 10:34:27;;;;;;;16.08;5.68;;;;;;;15.38;59.82;102864.53;5078732;28;20067;-83
2022/04/28 10:37:04;;;;;;;15.20;5.90;;;;;;;15.43;57.51;102858.88;5086080;28;20131;-80
2022/04/28 10:39:39;;;;;;;13.55;5.85;;;;;;;15.37;57.82;102863.69;5054261;28;20039;-80
2022/04/28 10:42:27;;;;;;;12.07;5.97;;;;;;;15.30;57.63;102861.69;5071204;28;20040;-81
2022/04/28 10:44:55;;;;;;;16.40;5.75;;;;;;;15.43;59.98;102862.34;5087618;28;20028;-82
2022/04/28 10:47:28;;;;;;;13.55;5.72;;;;;;;15.41;58.51;102859.00;5086473;28;20089;-79
2022/04/28 10:49:54;;;;;;;14.68;5.53;;;;;;;15.66;58.63;102868.38;5085191;28;20128;-79
2022/04/28 10:52:25;;;;;;;11.15;5.38;;;;;;;15.87;57.41;102851.69;5084852;28;20143;-78
2022/04/28 10:54:59;;;;;;;12.52;5.63;;;;;;;15.84;60.79;102857.22;5065984;28;20124;-80
2022/04/28 10:57:32;;;;;;;12.68;5.38;;;;;;;15.79;57.15;102857.63;5083939;28;20037;-80
2022/04/28 11:00:00;;;;;;;11.63;5.70;;;;;;;15.77;57.92;102856.94;5086315;28;20033;-79
2022/04/28 11:02:26;;;;;;;13.32;5.78;;;;;;;15.93;56.94;102852.00;5085586;28;20040;-79
2022/04/28 11:05:01;;;;;;;12.02;5.43;;;;;;;15.86;57.96;102845.56;5081027;28;20028;-81
2022/04/28 11:07:30;;;;;;;11.52;4.95;;;;;;;15.98;56.82;102846.31;5060566;28;20040;-80
2022/04/28 11:10:07;;;;;;;14.25;6.80;;;;;;;16.09;56.18;102848.91;5081592;28;20426;-79
2022/04/28 11:12:35;;;;;;;14.57;5.90;;;;;;;16.30;56.04;102846.19;5077915;28;20107;-79
2022/04/28 11:15:04;;;;;;;16.67;5.60;;;;;;;16.18;55.56;102844.63;5087742;28;20047;-78
2022/04/28 11:17:33;;;;;;;12.40;5.78;;;;;;;16.32;54.41;102846.91;5071310;28;20032;-77
2022/04/28 11:20:07;;;;;;;14.60;6.00;;;;;;;16.42;54.74;102844.28;5083383;28;20036;-78
2022/04/28 11:22:33;;;;;;;16.77;6.28;;;;;;;16.72;57.06;102837.28;5083690;28;20036;-78
2022/04/28 11:25:08;;;;;;;10.90;5.18;;;;;;;17.06;55.20;102850.19;5083318;28;20031;-77
2022/04/28 11:27:38;;;;;;;16.38;5.72;;;;;;;16.95;54.57;102843.19;5054044;28;20032;-77
2022/04/28 11:30:12;;;;;;;11.13;5.90;;;;;;;17.06;53.22;102840.41;5079538;28;20032;-80
2022/04/28 11:32:51;;;;;;;14.27;5.55;;;;;;;16.93;54.45;102834.53;5069539;28;20036;-79
2022/04/28 11:35:22;;;;;;;11.43;5.00;;;;;;;17.05;54.61;102835.28;5061058;28;20086;-80
2022/04/28 11:37:54;;;;;;;11.07;5.50;;;;;;;17.18;54.58;102837.63;5085245;28;20051;-79
2022/04/28 11:40:19;;;;;;;12.73;5.68;;;;;;;17.23;51.15;102833.59;5085917;28;20125;-78
2022/04/28 11:42:45;;;;;;;14.02;5.35;;;;;;;17.16;50.51;102834.28;5067327;28;20114;-80
2022/04/28 11:45:11;;;;;;;11.70;5.00;;;;;;;17.40;51.61;102840.00;5083794;28;20387;-79
2022/04/28 11:47:46;;;;;;;13.65;5.43;;;;;;;17.47;51.07;102838.47;5087717;28;20107;-80
2022/04/28 11:50:27;;;;;;;13.93;4.95;;;;;;;17.62;49.07;102843.34;5085675;28;20035;-79
2022/04/28 11:53:04;;;;;;;11.88;5.13;;;;;;;17.46;50.23;102830.63;5089434;28;20038;-80
2022/04/28 11:55:31;;;;;;;9.70;4.50;;;;;;;18.03;51.53;102839.50;5086389;28;20039;-78
2022/04/28 11:57:58;;;;;;;9.18;4.80;;;;;;;18.25;49.18;102837.47;5071526;28;20028;-79
2022/04/28 12:00:26;;;;;;;13.55;5.20;;;;;;;18.14;47.16;102840.28;5082199;28;20032;-78
2022/04/28 12:02:53;;;;;;;14.50;5.07;;;;;;;18.02;49.62;102837.81;5084822;28;20041;-79
2022/04/28 12:05:25;;;;;;;9.82;4.97;;;;;;;17.70;50.12;102844.28;5083504;28;20048;-79
2022/04/28 12:07:52;;;;;;;12.50;4.78;;;;;;;17.32;49.46;102835.41;5088480;28;20023;-79